createdAt,value
2024-02-15T00:02:43.821Z,61.49
2024-02-15T00:06:23.373Z,62.16
2024-02-15T00:09:48.747Z,62.78
2024-02-15T00:13:14.542Z,62.73
2024-02-15T00:16:52.712Z,62.23
2024-02-15T00:20:40.142Z,61.85
2024-02-15T00:24:19.807Z,61.68
2024-02-15T00:27:44.614Z,61.59
2024-02-15T00:31:37.514Z,61.46
2024-02-15T00:35:18.849Z,61.55
2024-02-15T00:38:53.418Z,61.58
2024-02-15T00:42:06.180Z,61.38
2024-02-15T00:45:35.595Z,61.40
2024-02-15T00:49:00.952Z,61.59
2024-02-15T00:57:12.656Z,61.60
2024-02-15T01:04:51.774Z,61.74
2024-02-15T01:08:31.764Z,61.85
2024-02-15T01:12:43.922Z,62.52
2024-02-15T01:16:34.261Z,62.87
2024-02-15T01:19:46.461Z,62.26
2024-02-15T01:23:33.630Z,61.63
2024-02-15T01:27:20.821Z,61.38
2024-02-15T01:31:08.609Z,61.39
2024-02-15T01:34:25.867Z,61.56
2024-02-15T01:42:18.296Z,61.91
2024-02-15T01:45:29.570Z,62.27
2024-02-15T01:48:58.196Z,62.76
2024-02-15T01:52:38.213Z,63.67
2024-02-15T01:55:57.108Z,65.13
2024-02-15T01:59:30.772Z,65.04
2024-02-15T02:03:20.160Z,64.47
2024-02-15T02:07:01.264Z,63.89
2024-02-15T02:10:49.646Z,63.22
2024-02-15T02:14:23.207Z,63.33
2024-02-15T02:17:57.177Z,63.27
2024-02-15T02:21:37.404Z,63.27
2024-02-15T02:25:13.185Z,63.15
2024-02-15T02:28:45.288Z,63.35
2024-02-15T02:32:35.263Z,63.36
2024-02-15T02:36:17.904Z,63.36
2024-02-15T02:39:51.809Z,63.39
2024-02-15T02:43:24.944Z,63.63
2024-02-15T02:51:11.173Z,63.49
2024-02-15T02:54:43.219Z,63.59
2024-02-15T02:58:08.441Z,63.55
2024-02-15T03:01:56.442Z,63.37
2024-02-15T03:05:43.286Z,63.19
2024-02-15T03:09:18.361Z,63.27
2024-02-15T03:13:08.674Z,63.14
2024-02-15T03:16:47.545Z,63.26
2024-02-15T03:20:35.321Z,63.15
2024-02-15T03:24:16.167Z,63.37
2024-02-15T03:27:27.245Z,63.55
2024-02-15T03:30:27.341Z,63.77
2024-02-15T03:33:48.283Z,63.64
2024-02-15T03:37:14.715Z,63.67
2024-02-15T03:40:45.944Z,63.56
2024-02-15T03:48:44.462Z,62.76
2024-02-15T03:52:17.077Z,62.84
2024-02-15T03:55:49.339Z,63.15
2024-02-15T04:04:17.239Z,63.07
2024-02-15T04:07:52.811Z,62.91
2024-02-15T04:11:31.950Z,63.91
2024-02-15T04:15:06.998Z,63.10
2024-02-15T04:18:48.141Z,63.18
2024-02-15T04:22:09.669Z,62.76
2024-02-15T04:25:26.682Z,62.57
2024-02-15T04:29:10.825Z,62.51
2024-02-15T04:37:19.877Z,62.81
2024-02-15T04:40:53.255Z,62.68
2024-02-15T04:44:28.519Z,62.76
2024-02-15T04:47:49.908Z,63.11
2024-02-15T04:51:08.882Z,62.97
2024-02-15T04:54:22.557Z,62.83
2024-02-15T04:57:35.094Z,62.85
2024-02-15T05:01:05.177Z,62.82
2024-02-15T05:04:30.979Z,62.86
2024-02-15T05:08:09.588Z,62.85
2024-02-15T05:11:32.366Z,63.00
2024-02-15T05:14:50.000Z,64.02
2024-02-15T05:18:08.920Z,63.70
2024-02-15T05:21:47.711Z,63.27
2024-02-15T05:25:08.124Z,62.97
2024-02-15T05:28:09.478Z,63.03
2024-02-15T05:31:46.527Z,62.99
2024-02-15T05:35:04.901Z,63.13
2024-02-15T05:38:17.635Z,63.29
2024-02-15T05:45:56.936Z,63.40
2024-02-15T05:49:18.118Z,63.45
2024-02-15T05:52:47.758Z,62.83
2024-02-15T05:56:33.183Z,62.96
2024-02-15T05:59:46.166Z,61.84
2024-02-15T06:02:46.641Z,61.95
2024-02-15T06:06:01.010Z,62.05
2024-02-15T06:08:48.164Z,62.45
2024-02-15T06:12:13.317Z,62.82
2024-02-15T06:15:44.294Z,62.47
2024-02-15T06:19:08.923Z,62.40
2024-02-15T06:23:29.694Z,62.20
2024-02-15T06:27:00.278Z,61.68
2024-02-15T06:30:29.793Z,61.92
2024-02-15T06:34:10.357Z,61.00
2024-02-15T06:38:32.511Z,61.57
2024-02-15T06:42:08.371Z,61.55
2024-02-15T06:45:43.401Z,60.32
2024-02-15T06:48:51.950Z,60.11
2024-02-15T06:51:32.183Z,60.34
2024-02-15T06:54:22.352Z,60.16
2024-02-15T06:56:59.020Z,61.04
2024-02-15T06:59:26.939Z,61.12
2024-02-15T07:02:20.617Z,60.00
2024-02-15T07:05:11.088Z,59.40
2024-02-15T07:08:11.708Z,59.02
2024-02-15T07:10:59.077Z,59.14
2024-02-15T07:14:47.410Z,59.11
2024-02-15T07:17:49.196Z,58.99
2024-02-15T07:26:01.885Z,59.13
2024-02-15T07:29:43.373Z,58.20
2024-02-15T07:33:17.535Z,57.96
2024-02-15T07:36:39.885Z,58.37
2024-02-15T07:40:23.971Z,58.95
2024-02-15T07:44:01.635Z,57.71
2024-02-15T07:47:27.653Z,57.67
2024-02-15T07:51:00.143Z,57.44
2024-02-15T07:54:27.985Z,57.35
2024-02-15T07:58:08.962Z,58.15
2024-02-15T08:01:55.999Z,56.96
2024-02-15T08:05:41.017Z,55.92
2024-02-15T08:09:28.243Z,56.40
2024-02-15T08:13:08.254Z,56.95
2024-02-15T08:16:49.668Z,56.08
2024-02-15T08:20:37.081Z,55.05
2024-02-15T08:24:10.411Z,55.62
2024-02-15T08:27:50.034Z,55.45
2024-02-15T08:31:30.808Z,56.14
2024-02-15T08:35:05.924Z,55.01
2024-02-15T08:38:54.371Z,53.78
2024-02-15T08:42:48.070Z,54.40
2024-02-15T08:46:31.840Z,53.83
2024-02-15T08:50:27.536Z,53.26
2024-02-15T08:54:04.748Z,53.21
2024-02-15T09:01:54.960Z,53.62
2024-02-15T09:05:32.318Z,54.66
2024-02-15T09:09:07.061Z,54.82
2024-02-15T09:16:57.550Z,51.84
2024-02-15T09:24:42.497Z,51.97
2024-02-15T09:28:09.146Z,51.22
2024-02-15T09:31:50.276Z,51.23
2024-02-15T09:36:20.081Z,51.14
2024-02-15T09:39:55.503Z,50.30
2024-02-15T09:43:40.249Z,50.73
2024-02-15T09:47:13.929Z,50.24
2024-02-15T09:51:14.557Z,49.62
2024-02-15T09:54:52.147Z,50.17
2024-02-15T09:58:40.379Z,49.66
2024-02-15T10:02:02.036Z,48.98
2024-02-15T10:05:26.056Z,49.53
2024-02-15T10:08:45.305Z,49.30
2024-02-15T10:11:31.243Z,49.51
2024-02-15T10:15:22.832Z,49.34
2024-02-15T10:19:01.846Z,47.56
2024-02-15T10:22:29.276Z,49.93
2024-02-15T10:26:19.681Z,49.68
2024-02-15T10:30:09.952Z,45.76
2024-02-15T10:34:01.992Z,45.82
2024-02-15T10:37:56.091Z,46.08
2024-02-15T10:41:37.905Z,45.36
2024-02-15T10:45:13.839Z,46.71
2024-02-15T10:49:02.460Z,47.55
2024-02-15T10:52:44.731Z,44.82
2024-02-15T10:56:19.396Z,45.19
2024-02-15T11:00:03.174Z,43.57
2024-02-15T11:03:43.204Z,44.76
2024-02-15T11:07:12.456Z,46.40
2024-02-15T11:10:44.538Z,45.56
2024-02-15T11:14:03.140Z,46.29
2024-02-15T11:17:42.618Z,43.35
2024-02-15T11:21:25.907Z,42.46
2024-02-15T11:25:17.142Z,43.86
2024-02-15T11:28:55.261Z,43.82
2024-02-15T11:32:33.190Z,42.01
2024-02-15T11:36:11.841Z,40.60
2024-02-15T11:39:51.358Z,42.97
2024-02-15T11:43:26.112Z,41.12
2024-02-15T11:55:15.220Z,42.31
2024-02-15T11:59:05.038Z,42.24
2024-02-15T12:02:18.460Z,43.28
2024-02-15T12:05:40.998Z,43.02
2024-02-15T12:08:49.160Z,40.63
2024-02-15T12:12:28.849Z,40.74
2024-02-15T12:16:21.278Z,44.20
2024-02-15T12:20:12.630Z,41.55
2024-02-15T12:23:37.439Z,41.79
2024-02-15T12:27:12.669Z,41.75
2024-02-15T12:30:47.333Z,41.32
2024-02-15T12:35:45.050Z,40.90
2024-02-15T12:38:50.181Z,41.06
2024-02-15T12:42:31.040Z,41.13
2024-02-15T12:46:20.187Z,41.43
2024-02-15T12:49:59.161Z,40.99
2024-02-15T12:54:34.209Z,41.40
2024-02-15T12:58:35.985Z,41.90
2024-02-15T13:02:24.639Z,42.15
2024-02-15T13:07:01.431Z,42.88
2024-02-15T13:10:02.078Z,43.31
2024-02-15T13:13:45.293Z,43.37
2024-02-15T13:17:29.643Z,43.41
2024-02-15T13:20:55.636Z,43.23
2024-02-15T13:24:05.529Z,43.57
2024-02-15T13:27:44.276Z,43.63
2024-02-15T13:31:35.015Z,44.38
2024-02-15T13:34:31.096Z,44.56
2024-02-15T13:37:41.438Z,44.33
2024-02-15T13:40:45.990Z,44.17
2024-02-15T13:43:24.300Z,44.14
2024-02-15T13:46:12.298Z,44.36
2024-02-15T13:49:12.101Z,44.74
2024-02-15T13:52:36.960Z,44.74
2024-02-15T13:55:31.475Z,45.26
2024-02-15T13:58:42.151Z,44.76
2024-02-15T14:01:39.162Z,45.16
2024-02-15T14:05:23.153Z,45.57
2024-02-15T14:08:29.475Z,45.32
2024-02-15T14:11:09.861Z,45.36
2024-02-15T14:14:30.666Z,44.84
2024-02-15T14:17:03.144Z,44.77
2024-02-15T14:20:08.104Z,45.14
2024-02-15T14:23:44.817Z,45.07
2024-02-15T14:27:22.366Z,44.83
2024-02-15T14:30:32.825Z,44.70
2024-02-15T14:34:02.289Z,45.30
2024-02-15T14:36:38.462Z,45.82
2024-02-15T14:39:32.151Z,45.83
2024-02-15T14:42:22.824Z,46.23
2024-02-15T14:45:02.667Z,46.33
2024-02-15T14:48:33.360Z,46.86
2024-02-15T14:51:53.369Z,47.52
2024-02-15T14:54:24.545Z,47.85
2024-02-15T14:57:28.779Z,48.18
2024-02-15T15:05:37.787Z,48.25
2024-02-15T15:08:39.254Z,48.45
2024-02-15T15:11:52.391Z,49.49
2024-02-15T15:15:13.260Z,50.50
2024-02-15T15:18:19.163Z,51.18
2024-02-15T15:21:27.934Z,49.98
2024-02-15T15:24:19.339Z,51.56
2024-02-15T15:27:11.098Z,51.58
2024-02-15T15:30:50.043Z,51.79
2024-02-15T15:33:58.003Z,53.14
2024-02-15T15:37:24.420Z,53.76
2024-02-15T15:40:36.630Z,54.39
2024-02-15T15:43:36.133Z,54.24
2024-02-15T15:47:20.251Z,55.60
2024-02-15T15:50:05.503Z,55.92
2024-02-15T15:53:24.198Z,57.00
2024-02-15T15:56:26.588Z,57.57
2024-02-15T16:05:33.909Z,56.50
2024-02-15T16:08:32.880Z,56.46
2024-02-15T16:11:42.926Z,57.61
2024-02-15T16:14:42.899Z,59.96
2024-02-15T16:18:36.223Z,57.40
2024-02-15T16:21:43.674Z,57.45
2024-02-15T16:25:21.078Z,58.57
2024-02-15T16:32:49.596Z,57.65
2024-02-15T16:50:48.790Z,58.96
2024-02-15T16:58:34.770Z,59.97
2024-02-15T17:01:27.212Z,60.21
2024-02-15T17:04:19.278Z,60.48
2024-02-15T17:07:01.919Z,61.37
2024-02-15T17:09:33.445Z,61.59
2024-02-15T17:12:07.078Z,61.90
2024-02-15T17:15:09.229Z,61.71
2024-02-15T17:19:30.555Z,61.43
2024-02-15T17:21:47.535Z,61.02
2024-02-15T17:27:19.875Z,60.86
2024-02-15T17:29:36.510Z,61.12
2024-02-15T17:32:14.073Z,60.30
2024-02-15T17:34:45.379Z,59.89
2024-02-15T17:37:24.449Z,59.65
2024-02-15T17:39:57.051Z,59.51
2024-02-15T17:42:27.624Z,59.29
2024-02-15T17:45:01.342Z,59.29
2024-02-15T17:48:20.497Z,59.31
2024-02-15T17:51:33.601Z,59.31
2024-02-15T17:54:56.046Z,59.29
2024-02-15T17:57:49.291Z,60.19
2024-02-15T18:00:23.724Z,60.13
2024-02-15T18:03:10.298Z,60.71
2024-02-15T18:06:36.445Z,60.23
2024-02-15T18:09:21.752Z,60.60
2024-02-15T18:11:52.559Z,60.49
2024-02-15T18:14:22.719Z,60.69
2024-02-15T18:17:13.671Z,61.48
2024-02-15T18:19:41.217Z,61.88
2024-02-15T18:22:24.088Z,61.75
2024-02-15T18:25:03.273Z,61.46
2024-02-15T18:28:19.454Z,61.44
2024-02-15T18:30:50.048Z,61.74
2024-02-15T18:33:18.259Z,61.79
2024-02-15T18:36:05.135Z,61.94
2024-02-15T18:38:39.052Z,61.98
2024-02-15T18:41:47.926Z,62.16
2024-02-15T18:44:19.477Z,62.49
2024-02-15T18:47:02.558Z,63.00
2024-02-15T18:49:34.752Z,63.33
2024-02-15T18:52:18.862Z,62.96
2024-02-15T18:55:15.447Z,62.81
2024-02-15T18:58:09.218Z,62.39
2024-02-15T19:01:13.922Z,62.22
2024-02-15T19:04:18.061Z,62.40
2024-02-15T19:07:22.580Z,62.34
2024-02-15T19:10:22.476Z,62.71
2024-02-15T19:13:22.621Z,63.33
2024-02-15T19:15:58.589Z,64.33
2024-02-15T19:19:00.499Z,64.56
2024-02-15T19:21:34.007Z,64.57
2024-02-15T19:25:15.223Z,64.41
2024-02-15T19:27:49.334Z,64.49
2024-02-15T19:30:40.721Z,64.37
2024-02-15T19:33:56.653Z,64.19
2024-02-15T19:36:37.385Z,64.02
2024-02-15T19:39:11.431Z,64.15
2024-02-15T19:41:50.197Z,64.98
2024-02-15T19:44:27.156Z,65.56
2024-02-15T19:47:18.812Z,65.40
2024-02-15T19:50:04.090Z,65.12
2024-02-15T19:52:50.445Z,64.93
2024-02-15T19:55:42.530Z,64.72
2024-02-15T19:58:15.866Z,64.89
2024-02-15T20:00:49.774Z,65.05
2024-02-15T20:03:17.717Z,64.73
2024-02-15T20:05:59.202Z,64.64
2024-02-15T20:08:32.554Z,65.03
2024-02-15T20:11:03.520Z,65.57
2024-02-15T20:14:06.948Z,65.97
2024-02-15T20:16:35.459Z,65.70
2024-02-15T20:19:08.311Z,65.28
2024-02-15T20:21:46.300Z,64.88
2024-02-15T20:24:25.402Z,64.60
2024-02-15T20:27:00.464Z,64.61
2024-02-15T20:29:31.124Z,64.81
2024-02-15T20:32:09.506Z,65.02
2024-02-15T20:34:40.211Z,64.93
2024-02-15T20:37:08.301Z,65.56
2024-02-15T20:39:36.094Z,66.34
2024-02-15T20:42:11.677Z,66.44
2024-02-15T20:44:42.878Z,66.43
2024-02-15T20:47:12.058Z,66.42
2024-02-15T20:49:49.285Z,66.18
2024-02-15T20:52:19.690Z,66.22
2024-02-15T20:55:07.863Z,66.26
2024-02-15T20:57:48.403Z,66.36
2024-02-15T21:00:20.484Z,66.64
2024-02-15T21:02:51.137Z,66.97
2024-02-15T21:05:30.645Z,67.25
2024-02-15T21:08:10.424Z,66.93
2024-02-15T21:10:38.106Z,66.58
2024-02-15T21:13:29.643Z,66.36
2024-02-15T21:16:18.514Z,66.19
2024-02-15T21:18:55.019Z,66.21
2024-02-15T21:21:22.863Z,66.32
2024-02-15T21:23:51.024Z,66.83
2024-02-15T21:26:22.613Z,66.84
2024-02-15T21:28:51.009Z,66.52
2024-02-15T21:31:19.692Z,66.13
2024-02-15T21:33:52.471Z,65.88
2024-02-15T21:36:23.863Z,65.71
2024-02-15T21:38:57.343Z,65.85
2024-02-15T21:41:27.730Z,66.45
2024-02-15T21:43:58.359Z,66.79
2024-02-15T21:46:33.400Z,67.27
2024-02-15T21:49:11.883Z,67.10
2024-02-15T21:51:49.956Z,68.03
2024-02-15T21:54:19.872Z,67.71
2024-02-15T21:56:53.497Z,68.26
2024-02-15T21:59:23.208Z,69.10
2024-02-15T22:01:52.532Z,69.86
2024-02-15T22:04:34.006Z,69.52
2024-02-15T22:07:24.227Z,69.60
2024-02-15T22:10:01.934Z,70.08
2024-02-15T22:12:41.008Z,70.72
2024-02-15T22:15:11.191Z,70.49
2024-02-15T22:17:39.534Z,70.54
2024-02-15T22:20:35.734Z,70.98
2024-02-15T22:23:18.846Z,70.42
2024-02-15T22:25:57.282Z,71.02
2024-02-15T22:28:47.132Z,70.72
2024-02-15T22:31:24.817Z,70.72
2024-02-15T22:33:52.993Z,70.96
2024-02-15T22:36:46.248Z,70.61
2024-02-15T22:39:43.287Z,69.74
2024-02-15T22:42:14.339Z,68.70
2024-02-15T22:45:04.718Z,67.59
2024-02-15T22:47:49.344Z,66.99
2024-02-15T22:50:47.422Z,66.04
2024-02-15T22:53:20.555Z,64.95
2024-02-15T22:55:48.485Z,64.55
2024-02-15T22:58:51.057Z,64.40
2024-02-15T23:01:32.328Z,64.52
2024-02-15T23:04:00.190Z,65.28
2024-02-15T23:07:02.317Z,64.93
2024-02-15T23:09:30.365Z,64.19
2024-02-15T23:12:02.793Z,64.38
2024-02-15T23:14:39.588Z,64.20
2024-02-15T23:17:07.968Z,63.90
2024-02-15T23:19:36.166Z,63.79
2024-02-15T23:22:26.491Z,63.55
2024-02-15T23:25:00.374Z,63.42
2024-02-15T23:27:35.293Z,63.38
2024-02-15T23:30:04.320Z,63.45
2024-02-15T23:32:37.079Z,63.46
2024-02-15T23:35:16.545Z,63.40
2024-02-15T23:38:04.735Z,63.50
2024-02-15T23:40:35.203Z,64.02
2024-02-15T23:43:02.991Z,63.89
2024-02-15T23:45:39.177Z,63.69
2024-02-15T23:48:24.030Z,63.67
2024-02-15T23:50:55.153Z,63.17
2024-02-15T23:53:32.913Z,63.18
2024-02-15T23:56:00.768Z,63.13
2024-02-15T23:58:37.751Z,63.12
